Time,TemperatureF,DewpointF,PressureIn,WindDirection,WindDirectionDegrees,WindSpeedMPH,WindSpeedGustMPH,Humidity,HourlyPrecipIn,Conditions,Clouds,dailyrainin,SoftwareType,DateUTC
2013-05-11 00:01:00,50.9,35.5,30.20,ESE,111,0.0,0.0,56,0.00,,---,0.00,VWS V14.01,2013-05-11 07:01:00,
2013-05-11 00:06:00,51.1,35.7,30.20,NNW,340,2.2,2.7,56,0.00,,---,0.00,VWS V14.01,2013-05-11 07:06:00,
2013-05-11 00:12:00,50.5,35.2,30.20,North,10,0.0,2.2,56,0.00,,---,0.00,VWS V14.01,2013-05-11 07:12:00,
2013-05-11 00:17:00,50.5,35.2,30.20,NNE,30,0.0,0.0,56,0.00,,---,0.00,VWS V14.01,2013-05-11 07:17:00,
2013-05-11 00:23:00,50.7,35.4,30.20,WSW,239,2.2,3.1,56,0.00,,---,0.00,VWS V14.01,2013-05-11 07:23:00,
2013-05-11 00:29:00,50.5,35.9,30.20,WSW,239,2.7,2.7,57,0.00,,---,0.00,VWS V14.01,2013-05-11 07:29:00,
2013-05-11 00:35:00,50.4,35.7,30.20,SSE,154,0.0,0.0,57,0.00,,---,0.00,VWS V14.01,2013-05-11 07:35:00,
2013-05-11 00:41:00,50.2,35.5,30.20,SSE,153,0.0,0.0,57,0.00,,---,0.00,VWS V14.01,2013-05-11 07:41:00,
2013-05-11 00:47:00,50.0,35.4,30.20,East,89,0.0,0.0,57,0.00,,---,0.00,VWS V14.01,2013-05-11 07:47:00,
2013-05-11 00:53:00,50.2,35.5,30.20,ENE,62,3.1,3.1,57,0.00,,---,0.00,VWS V14.01,2013-05-11 07:53:00,
2013-05-11 00:58:00,50.2,35.5,30.20,NE,47,0.0,0.0,57,0.00,,---,0.00,VWS V14.01,2013-05-11 07:58:00,
2013-05-11 01:04:00,50.0,35.4,30.20,NNW,328,0.0,0.0,57,0.00,,---,0.00,VWS V14.01,2013-05-11 08:04:00,
2013-05-11 01:09:00,49.5,34.9,30.20,NNW,328,0.0,0.0,57,0.00,,---,0.00,VWS V14.01,2013-05-11 08:09:00,
2013-05-11 01:15:00,49.5,34.9,30.20,NNW,328,0.0,0.0,57,0.00,,---,0.00,VWS V14.01,2013-05-11 08:15:00,
2013-05-11 01:20:00,49.3,34.7,30.20,ESE,107,0.0,2.2,57,0.00,,---,0.00,VWS V14.01,2013-05-11 08:20:00,
2013-05-11 01:26:00,49.1,34.5,30.20,SE,126,0.0,0.0,57,0.00,,---,0.00,VWS V14.01,2013-05-11 08:26:00,
2013-05-11 01:31:00,48.7,34.2,30.20,SE,126,0.0,0.0,57,0.00,,---,0.00,VWS V14.01,2013-05-11 08:31:00,
2013-05-11 01:37:00,48.2,33.7,30.20,SE,126,0.0,0.0,57,0.00,,---,0.00,VWS V14.01,2013-05-11 08:37:00,
2013-05-11 01:43:00,48.0,33.5,30.20,NNE,14,0.0,0.0,57,0.00,,---,0.00,VWS V14.01,2013-05-11 08:43:00,
2013-05-11 01:48:00,48.2,33.7,30.20,East,100,0.0,0.0,57,0.00,,---,0.00,VWS V14.01,2013-05-11 08:48:00,
2013-05-11 01:54:00,48.0,34.2,30.20,SSE,153,3.1,3.6,58,0.00,,---,0.00,VWS V14.01,2013-05-11 08:54:00,
2013-05-11 01:59:00,48.0,34.2,30.20,SE,140,4.0,4.0,58,0.00,,---,0.00,VWS V14.01,2013-05-11 08:59:00,
2013-05-11 02:04:00,48.0,34.2,30.20,ESE,120,2.7,3.1,58,0.00,,---,0.00,VWS V14.01,2013-05-11 09:04:00,
2013-05-11 02:10:00,48.2,34.3,30.20,ENE,68,5.4,6.3,58,0.00,,---,0.00,VWS V14.01,2013-05-11 09:10:00,
2013-05-11 02:16:00,47.8,34.0,30.20,ENE,59,3.6,4.9,58,0.00,,---,0.00,VWS V14.01,2013-05-11 09:16:00,
2013-05-11 02:21:00,47.8,34.0,30.20,NW,306,0.0,0.0,58,0.00,,---,0.00,VWS V14.01,2013-05-11 09:21:00,
2013-05-11 02:27:00,48.0,34.8,30.20,NW,306,0.0,0.0,60,0.00,,---,0.00,VWS V14.01,2013-05-11 09:27:00,
2013-05-11 02:32:00,47.8,34.6,30.20,ESE,117,2.2,3.6,60,0.00,,---,0.00,VWS V14.01,2013-05-11 09:32:00,
2013-05-11 02:37:00,48.0,34.8,30.20,ENE,72,3.1,3.6,60,0.00,,---,0.00,VWS V14.01,2013-05-11 09:37:00,
2013-05-11 02:43:00,48.2,34.3,30.20,ENE,65,0.0,0.0,58,0.00,,---,0.00,VWS V14.01,2013-05-11 09:43:00,
2013-05-11 02:49:00,47.8,34.0,30.20,North,8,0.0,2.2,58,0.00,,---,0.00,VWS V14.01,2013-05-11 09:49:00,
2013-05-11 02:54:00,47.5,33.7,30.20,North,8,0.0,0.0,58,0.00,,---,0.00,VWS V14.01,2013-05-11 09:54:00,
2013-05-11 02:59:00,47.3,33.5,30.20,North,8,0.0,0.0,58,0.00,,---,0.00,VWS V14.01,2013-05-11 09:59:00,
2013-05-11 03:05:00,47.3,33.5,30.20,North,8,0.0,0.0,58,0.00,,---,0.00,VWS V14.01,2013-05-11 10:05:00,
2013-05-11 03:11:00,46.8,33.0,30.20,NE,39,0.0,0.0,58,0.00,,---,0.00,VWS V14.01,2013-05-11 10:11:00,
2013-05-11 03:16:00,46.6,32.8,30.20,SSE,153,0.0,0.0,58,0.00,,---,0.00,VWS V14.01,2013-05-11 10:16:00,
2013-05-11 03:21:00,46.6,32.8,30.20,SE,132,3.1,3.6,58,0.00,,---,0.00,VWS V14.01,2013-05-11 10:21:00,
2013-05-11 03:27:00,46.6,32.8,30.20,SSE,147,2.7,4.0,58,0.00,,---,0.00,VWS V14.01,2013-05-11 10:27:00,
2013-05-11 03:32:00,46.6,32.8,30.20,SSE,149,0.0,0.0,58,0.00,,---,0.00,VWS V14.01,2013-05-11 10:32:00,
2013-05-11 03:38:00,46.8,33.0,30.17,East,99,0.0,0.0,58,0.00,,---,0.00,VWS V14.01,2013-05-11 10:38:00,
2013-05-11 03:43:00,47.1,34.0,30.17,ESE,117,0.0,0.0,60,0.00,,---,0.00,VWS V14.01,2013-05-11 10:43:00,
2013-05-11 03:48:00,47.1,34.0,30.17,ESE,117,0.0,0.0,60,0.00,,---,0.00,VWS V14.01,2013-05-11 10:48:00,
2013-05-11 03:53:00,47.1,34.0,30.17,ESE,117,0.0,0.0,60,0.00,,---,0.00,VWS V14.01,2013-05-11 10:53:00,
2013-05-11 03:59:00,47.1,34.0,30.17,SE,133,0.0,0.0,60,0.00,,---,0.00,VWS V14.01,2013-05-11 10:59:00,
2013-05-11 04:04:00,47.3,34.1,30.17,ESE,122,2.2,2.7,60,0.00,,---,0.00,VWS V14.01,2013-05-11 11:04:00,
2013-05-11 04:10:00,47.5,34.3,30.17,East,100,0.0,0.0,60,0.00,,---,0.00,VWS V14.01,2013-05-11 11:10:00,
2013-05-11 04:16:00,47.8,34.6,30.17,East,87,0.0,0.0,60,0.00,,---,0.00,VWS V14.01,2013-05-11 11:16:00,
2013-05-11 04:21:00,47.8,34.6,30.17,East,87,0.0,0.0,60,0.00,,---,0.00,VWS V14.01,2013-05-11 11:21:00,
2013-05-11 04:27:00,47.7,34.5,30.17,NE,56,4.0,4.0,60,0.00,,---,0.00,VWS V14.01,2013-05-11 11:27:00,
2013-05-11 04:32:00,48.0,34.8,30.17,NE,49,0.0,0.0,60,0.00,,---,0.00,VWS V14.01,2013-05-11 11:32:00,
2013-05-11 04:37:00,47.8,34.0,30.17,NE,48,0.0,0.0,58,0.00,,---,0.00,VWS V14.01,2013-05-11 11:37:00,
2013-05-11 04:43:00,47.7,33.8,30.17,SE,124,0.0,0.0,58,0.00,,---,0.00,VWS V14.01,2013-05-11 11:43:00,
2013-05-11 04:49:00,47.3,33.5,30.17,SE,131,0.0,0.0,58,0.00,,---,0.00,VWS V14.01,2013-05-11 11:49:00,
2013-05-11 04:55:00,47.3,33.5,30.17,East,81,3.1,4.0,58,0.00,,---,0.00,VWS V14.01,2013-05-11 11:55:00,
2013-05-11 05:01:00,48.4,34.5,30.17,ENE,60,4.0,6.3,58,0.00,,---,0.00,VWS V14.01,2013-05-11 12:01:00,
2013-05-11 05:06:00,49.5,34.9,30.17,SE,142,2.7,3.1,57,0.00,,---,0.00,VWS V14.01,2013-05-11 12:06:00,
2013-05-11 05:12:00,48.9,34.4,30.17,SE,130,3.6,4.0,57,0.00,,---,0.00,VWS V14.01,2013-05-11 12:12:00,
2013-05-11 05:17:00,48.2,33.7,30.17,South,187,0.0,0.0,57,0.00,,---,0.00,VWS V14.01,2013-05-11 12:17:00,
2013-05-11 05:23:00,47.5,33.0,30.17,South,187,0.0,0.0,57,0.00,,---,0.00,VWS V14.01,2013-05-11 12:23:00,
2013-05-11 05:28:00,47.1,32.7,30.17,South,187,0.0,0.0,57,0.00,,---,0.00,VWS V14.01,2013-05-11 12:28:00,
2013-05-11 05:33:00,46.9,32.5,30.17,SE,131,3.1,3.6,57,0.00,,---,0.00,VWS V14.01,2013-05-11 12:33:00,
2013-05-11 05:39:00,46.6,31.5,30.17,South,175,2.7,2.7,56,0.00,,---,0.00,VWS V14.01,2013-05-11 12:39:00,
2013-05-11 05:45:00,46.4,31.4,30.17,SE,141,0.0,3.1,56,0.00,,---,0.00,VWS V14.01,2013-05-11 12:45:00,
2013-05-11 05:51:00,46.0,31.7,30.17,SE,131,3.1,3.1,57,0.00,,---,0.00,VWS V14.01,2013-05-11 12:51:00,
2013-05-11 05:56:00,45.9,31.5,30.17,SE,126,0.0,2.7,57,0.00,,---,0.00,VWS V14.01,2013-05-11 12:56:00,
2013-05-11 06:02:00,45.9,31.5,30.17,SSW,197,3.6,4.0,57,0.00,,---,0.00,VWS V14.01,2013-05-11 13:02:00,
2013-05-11 06:07:00,45.7,31.3,30.17,SSE,147,4.0,4.5,57,0.00,,---,0.00,VWS V14.01,2013-05-11 13:07:00,
2013-05-11 06:12:00,45.9,31.5,30.17,SE,141,3.1,5.4,57,0.00,,---,0.00,VWS V14.01,2013-05-11 13:12:00,
2013-05-11 06:18:00,46.6,32.2,30.17,ENE,70,3.6,4.9,57,0.00,,---,0.00,VWS V14.01,2013-05-11 13:18:00,
2013-05-11 06:24:00,47.7,33.2,30.17,ENE,57,0.0,0.0,57,0.00,,---,0.00,VWS V14.01,2013-05-11 13:24:00,
2013-05-11 06:30:00,48.7,33.5,30.17,ENE,57,0.0,0.0,56,0.00,,---,0.00,VWS V14.01,2013-05-11 13:30:00,
2013-05-11 06:36:00,49.5,34.2,30.17,SE,146,6.3,6.7,56,0.00,,---,0.00,VWS V14.01,2013-05-11 13:36:00,
2013-05-11 06:42:00,50.2,34.9,30.17,ENE,77,5.8,6.3,56,0.00,,---,0.00,VWS V14.01,2013-05-11 13:42:00,
2013-05-11 06:47:00,51.6,35.5,30.17,ENE,78,5.8,7.6,54,0.00,,---,0.00,VWS V14.01,2013-05-11 13:47:00,
2013-05-11 06:53:00,53.1,36.9,30.20,ENE,74,0.0,0.0,54,0.00,,---,0.00,VWS V14.01,2013-05-11 13:53:00,
2013-05-11 06:58:00,54.0,37.0,30.20,ENE,74,0.0,0.0,52,0.00,,---,0.00,VWS V14.01,2013-05-11 13:58:00,
2013-05-11 07:03:00,54.9,37.1,30.20,ENE,74,0.0,0.0,51,0.00,,---,0.00,VWS V14.01,2013-05-11 14:03:00,
2013-05-11 07:08:00,56.1,36.7,30.20,NE,52,0.0,0.0,48,0.00,,---,0.00,VWS V14.01,2013-05-11 14:08:00,
2013-05-11 07:14:00,57.7,37.4,30.20,NE,52,0.0,0.0,46,0.00,,---,0.00,VWS V14.01,2013-05-11 14:14:00,
2013-05-11 07:19:00,59.2,37.9,30.20,North,2,0.0,0.0,45,0.00,,---,0.00,VWS V14.01,2013-05-11 14:19:00,
2013-05-11 07:25:00,60.8,37.6,30.20,WNW,291,0.0,0.0,42,0.00,,---,0.00,VWS V14.01,2013-05-11 14:25:00,
2013-05-11 07:30:00,62.2,38.9,30.20,West,265,3.1,3.1,42,0.00,,---,0.00,VWS V14.01,2013-05-11 14:30:00,
2013-05-11 07:36:00,63.9,39.4,30.20,WNW,295,0.0,0.0,40,0.00,,---,0.00,VWS V14.01,2013-05-11 14:36:00,
2013-05-11 07:41:00,65.5,39.9,30.20,East,89,3.6,3.6,39,0.00,,---,0.00,VWS V14.01,2013-05-11 14:41:00,
2013-05-11 07:46:00,67.5,39.6,30.20,East,96,4.0,5.8,36,0.00,,---,0.00,VWS V14.01,2013-05-11 14:46:00,
2013-05-11 07:51:00,69.6,40.4,30.20,ENE,67,4.0,6.3,34,0.00,,---,0.00,VWS V14.01,2013-05-11 14:51:00,
2013-05-11 07:57:00,71.8,40.0,30.20,East,79,4.0,7.6,32,0.00,,---,0.00,VWS V14.01,2013-05-11 14:57:00,
2013-05-11 08:03:00,73.4,37.4,30.20,East,90,3.6,4.0,27,0.00,,---,0.00,VWS V14.01,2013-05-11 15:03:00,
2013-05-11 08:08:00,74.3,35.2,30.20,East,97,6.3,7.6,24,0.00,,---,0.00,VWS V14.01,2013-05-11 15:08:00,
2013-05-11 08:14:00,75.2,34.3,30.20,ENE,71,5.4,8.3,22,0.00,,---,0.00,VWS V14.01,2013-05-11 15:14:00,
2013-05-11 08:19:00,76.1,35.1,30.20,ENE,70,8.1,9.6,22,0.00,,---,0.00,VWS V14.01,2013-05-11 15:19:00,
2013-05-11 08:24:00,77.0,35.8,30.20,ENE,73,8.7,8.7,22,0.00,,---,0.00,VWS V14.01,2013-05-11 15:24:00,
2013-05-11 08:30:00,77.7,36.5,30.20,ENE,78,10.1,10.5,22,0.00,,---,0.00,VWS V14.01,2013-05-11 15:30:00,
2013-05-11 08:36:00,78.8,37.3,30.20,ESE,108,2.7,2.7,22,0.00,,---,0.00,VWS V14.01,2013-05-11 15:36:00,
2013-05-11 08:42:00,79.9,38.2,30.20,ENE,66,6.7,7.6,22,0.00,,---,0.00,VWS V14.01,2013-05-11 15:42:00,
2013-05-11 08:48:00,80.1,38.4,30.20,East,80,8.3,11.0,22,0.00,,---,0.00,VWS V14.01,2013-05-11 15:48:00,
2013-05-11 08:53:00,80.4,38.7,30.20,NE,41,6.7,6.7,22,0.00,,---,0.00,VWS V14.01,2013-05-11 15:53:00,
2013-05-11 08:59:00,81.0,37.4,30.20,ENE,60,8.7,14.1,21,0.00,,---,0.00,VWS V14.01,2013-05-11 15:59:00,
2013-05-11 09:04:00,81.1,37.5,30.20,ENE,71,10.5,15.4,21,0.00,,---,0.00,VWS V14.01,2013-05-11 16:04:00,
2013-05-11 09:10:00,81.9,38.1,30.20,ENE,72,10.5,13.6,21,0.00,,---,0.00,VWS V14.01,2013-05-11 16:10:00,
2013-05-11 09:16:00,81.9,38.1,30.20,ENE,67,8.7,12.8,21,0.00,,---,0.00,VWS V14.01,2013-05-11 16:16:00,
2013-05-11 09:21:00,81.9,38.1,30.20,ENE,58,10.5,11.4,21,0.00,,---,0.00,VWS V14.01,2013-05-11 16:21:00,
2013-05-11 09:26:00,81.7,38.0,30.20,ENE,60,13.2,17.0,21,0.00,,---,0.00,VWS V14.01,2013-05-11 16:26:00,
2013-05-11 09:32:00,82.8,38.9,30.20,NNE,30,11.0,12.8,21,0.00,,---,0.00,VWS V14.01,2013-05-11 16:32:00,
2013-05-11 09:37:00,83.1,39.2,30.20,ENE,70,4.9,7.6,21,0.00,,---,0.00,VWS V14.01,2013-05-11 16:37:00,
2013-05-11 09:43:00,83.7,39.6,30.20,ENE,68,8.3,8.7,21,0.00,,---,0.00,VWS V14.01,2013-05-11 16:43:00,
2013-05-11 09:48:00,84.2,38.2,30.20,NE,41,12.8,12.8,20,0.00,,---,0.00,VWS V14.01,2013-05-11 16:48:00,
2013-05-11 09:54:00,84.7,38.6,30.20,ESE,104,7.6,11.0,20,0.00,,---,0.00,VWS V14.01,2013-05-11 16:54:00,
2013-05-11 10:00:00,83.8,39.8,30.20,ENE,76,12.8,17.4,21,0.00,,---,0.00,VWS V14.01,2013-05-11 17:00:00,
2013-05-11 10:05:00,84.6,38.5,30.20,ENE,59,15.4,15.4,20,0.00,,---,0.00,VWS V14.01,2013-05-11 17:05:00,
2013-05-11 10:10:00,84.2,38.2,30.20,NE,44,12.8,15.4,20,0.00,,---,0.00,VWS V14.01,2013-05-11 17:10:00,
2013-05-11 10:16:00,85.5,39.2,30.20,ENE,71,3.6,4.0,20,0.00,,---,0.00,VWS V14.01,2013-05-11 17:16:00,
2013-05-11 10:21:00,86.0,39.7,30.20,ESE,108,5.4,6.3,20,0.00,,---,0.00,VWS V14.01,2013-05-11 17:21:00,
2013-05-11 10:26:00,86.2,39.8,30.20,East,85,13.2,16.8,20,0.00,,---,0.00,VWS V14.01,2013-05-11 17:26:00,
2013-05-11 10:32:00,86.5,40.1,30.20,ESE,119,8.3,10.5,20,0.00,,---,0.00,VWS V14.01,2013-05-11 17:32:00,
2013-05-11 10:38:00,87.6,41.0,30.20,ESE,111,12.3,12.3,20,0.00,,---,0.00,VWS V14.01,2013-05-11 17:38:00,
2013-05-11 10:43:00,87.6,41.0,30.20,East,92,12.3,12.3,20,0.00,,---,0.00,VWS V14.01,2013-05-11 17:43:00,
2013-05-11 10:48:00,88.3,41.6,30.20,ESE,109,11.0,11.0,20,0.00,,---,0.00,VWS V14.01,2013-05-11 17:48:00,
2013-05-11 10:54:00,88.0,41.3,30.20,East,95,5.8,11.0,20,0.00,,---,0.00,VWS V14.01,2013-05-11 17:54:00,
2013-05-11 10:59:00,87.4,40.8,30.20,East,79,11.0,17.4,20,0.00,,---,0.00,VWS V14.01,2013-05-11 17:59:00,
2013-05-11 11:04:00,87.1,40.5,30.20,ENE,69,5.4,10.5,20,0.00,,---,0.00,VWS V14.01,2013-05-11 18:04:00,
2013-05-11 11:10:00,86.9,40.4,30.20,East,87,9.2,15.9,20,0.00,,---,0.00,VWS V14.01,2013-05-11 18:10:00,
2013-05-11 11:16:00,86.4,40.0,30.20,NE,46,17.9,20.1,20,0.00,,---,0.00,VWS V14.01,2013-05-11 18:16:00,
2013-05-11 11:21:00,87.6,41.0,30.20,ESE,114,11.0,11.0,20,0.00,,---,0.00,VWS V14.01,2013-05-11 18:21:00,
2013-05-11 11:27:00,88.0,41.3,30.20,ENE,71,9.2,14.5,20,0.00,,---,0.00,VWS V14.01,2013-05-11 18:27:00,
2013-05-11 11:32:00,88.0,41.3,30.20,ENE,67,8.1,10.5,20,0.00,,---,0.00,VWS V14.01,2013-05-11 18:32:00,
2013-05-11 11:38:00,87.1,40.5,30.20,NE,48,13.2,18.8,20,0.00,,---,0.00,VWS V14.01,2013-05-11 18:38:00,
2013-05-11 11:44:00,86.7,40.2,30.20,NE,46,16.8,20.1,20,0.00,,---,0.00,VWS V14.01,2013-05-11 18:44:00,
2013-05-11 11:49:00,86.9,40.4,30.20,NE,45,15.0,15.0,20,0.00,,---,0.00,VWS V14.01,2013-05-11 18:49:00,
2013-05-11 11:54:00,87.1,40.5,30.20,East,95,12.8,15.4,20,0.00,,---,0.00,VWS V14.01,2013-05-11 18:54:00,
2013-05-11 11:59:00,87.6,41.0,30.20,East,96,6.3,10.1,20,0.00,,---,0.00,VWS V14.01,2013-05-11 18:59:00,
2013-05-11 12:05:00,88.0,41.3,30.20,NNE,22,8.3,8.7,20,0.00,,---,0.00,VWS V14.01,2013-05-11 19:05:00,
2013-05-11 12:10:00,87.6,41.0,30.20,ENE,65,14.1,14.1,20,0.00,,---,0.00,VWS V14.01,2013-05-11 19:10:00,
2013-05-11 12:16:00,88.3,41.6,30.20,East,89,6.3,11.0,20,0.00,,---,0.00,VWS V14.01,2013-05-11 19:16:00,
2013-05-11 12:21:00,87.1,40.5,30.20,NE,39,13.2,13.2,20,0.00,,---,0.00,VWS V14.01,2013-05-11 19:21:00,
2013-05-11 12:27:00,88.5,41.7,30.20,East,98,10.5,12.3,20,0.00,,---,0.00,VWS V14.01,2013-05-11 19:27:00,
2013-05-11 12:32:00,89.6,40.5,30.20,ENE,72,7.6,9.6,18,0.00,,---,0.00,VWS V14.01,2013-05-11 19:32:00,
2013-05-11 12:38:00,88.9,42.0,30.20,ENE,60,15.4,15.4,20,0.00,,---,0.00,VWS V14.01,2013-05-11 19:38:00,
2013-05-11 12:43:00,88.0,41.3,30.20,NE,52,15.4,16.3,20,0.00,,---,0.00,VWS V14.01,2013-05-11 19:43:00,
2013-05-11 12:49:00,88.5,41.7,30.20,ESE,123,11.0,12.8,20,0.00,,---,0.00,VWS V14.01,2013-05-11 19:49:00,
2013-05-11 12:54:00,88.9,42.0,30.20,East,100,12.3,22.4,20,0.00,,---,0.00,VWS V14.01,2013-05-11 19:54:00,
2013-05-11 13:00:00,88.5,41.7,30.20,East,80,8.3,17.0,20,0.00,,---,0.00,VWS V14.01,2013-05-11 20:00:00,
2013-05-11 13:06:00,89.8,40.7,30.20,NE,53,11.9,11.9,18,0.00,,---,0.00,VWS V14.01,2013-05-11 20:06:00,
2013-05-11 13:12:00,89.1,42.2,30.20,ENE,58,15.0,15.9,20,0.00,,---,0.00,VWS V14.01,2013-05-11 20:12:00,
2013-05-11 13:17:00,88.7,41.9,30.20,NE,55,17.4,18.3,20,0.00,,---,0.00,VWS V14.01,2013-05-11 20:17:00,
2013-05-11 13:23:00,89.2,42.3,30.20,North,357,12.3,12.8,20,0.00,,---,0.00,VWS V14.01,2013-05-11 20:23:00,
2013-05-11 13:28:00,88.5,41.7,30.20,NE,52,6.3,6.3,20,0.00,,---,0.00,VWS V14.01,2013-05-11 20:28:00,
2013-05-11 13:33:00,88.3,41.6,30.20,NE,45,11.0,17.4,20,0.00,,---,0.00,VWS V14.01,2013-05-11 20:33:00,
2013-05-11 13:38:00,88.5,41.7,30.20,ENE,68,11.4,11.4,20,0.00,,---,0.00,VWS V14.01,2013-05-11 20:38:00,
2013-05-11 13:44:00,89.1,42.2,30.20,NE,52,8.3,8.3,20,0.00,,---,0.00,VWS V14.01,2013-05-11 20:44:00,
2013-05-11 13:49:00,88.3,41.6,30.20,ENE,60,20.6,20.6,20,0.00,,---,0.00,VWS V14.01,2013-05-11 20:49:00,
2013-05-11 13:54:00,88.5,41.7,30.20,ENE,68,10.5,15.4,20,0.00,,---,0.00,VWS V14.01,2013-05-11 20:54:00,
2013-05-11 13:59:00,89.4,42.5,30.20,East,99,11.9,13.2,20,0.00,,---,0.00,VWS V14.01,2013-05-11 20:59:00,
2013-05-11 14:05:00,90.1,41.0,30.20,ENE,62,8.1,10.1,18,0.00,,---,0.00,VWS V14.01,2013-05-11 21:05:00,
2013-05-11 14:12:00,90.1,41.0,30.17,East,86,7.6,12.3,18,0.00,,---,0.00,VWS V14.01,2013-05-11 21:12:00,
2013-05-11 14:17:00,89.8,40.7,30.17,NE,43,11.0,17.4,18,0.00,,---,0.00,VWS V14.01,2013-05-11 21:17:00,
2013-05-11 14:23:00,88.3,41.6,30.17,East,82,12.3,12.8,20,0.00,,---,0.00,VWS V14.01,2013-05-11 21:23:00,
2013-05-11 14:28:00,88.9,42.0,30.17,ENE,57,17.9,19.7,20,0.00,,---,0.00,VWS V14.01,2013-05-11 21:28:00,
2013-05-11 14:34:00,88.9,42.0,30.17,ENE,76,11.0,19.7,20,0.00,,---,0.00,VWS V14.01,2013-05-11 21:34:00,
2013-05-11 14:40:00,88.9,42.0,30.17,East,84,13.6,16.3,20,0.00,,---,0.00,VWS V14.01,2013-05-11 21:40:00,
2013-05-11 14:45:00,89.2,42.3,30.17,East,91,8.7,11.0,20,0.00,,---,0.00,VWS V14.01,2013-05-11 21:45:00,
2013-05-11 14:51:00,89.2,42.3,30.17,East,98,15.4,19.7,20,0.00,,---,0.00,VWS V14.01,2013-05-11 21:51:00,
2013-05-11 14:56:00,88.9,42.0,30.17,ESE,111,11.0,11.0,20,0.00,,---,0.00,VWS V14.01,2013-05-11 21:56:00,
2013-05-11 15:01:00,89.1,42.2,30.17,East,100,15.0,15.4,20,0.00,,---,0.00,VWS V14.01,2013-05-11 22:01:00,
2013-05-11 15:07:00,89.1,42.2,30.17,ENE,60,17.4,18.3,20,0.00,,---,0.00,VWS V14.01,2013-05-11 22:07:00,
2013-05-11 15:13:00,88.3,41.6,30.17,ENE,69,11.0,15.4,20,0.00,,---,0.00,VWS V14.01,2013-05-11 22:13:00,
2013-05-11 15:18:00,88.5,41.7,30.17,NNE,27,11.0,11.0,20,0.00,,---,0.00,VWS V14.01,2013-05-11 22:18:00,
2013-05-11 15:24:00,89.4,42.5,30.17,East,87,5.4,5.4,20,0.00,,---,0.00,VWS V14.01,2013-05-11 22:24:00,
2013-05-11 15:30:00,89.8,40.7,30.17,East,86,8.3,10.5,18,0.00,,---,0.00,VWS V14.01,2013-05-11 22:30:00,
2013-05-11 15:35:00,88.5,41.7,30.17,NE,42,24.2,24.2,20,0.00,,---,0.00,VWS V14.01,2013-05-11 22:35:00,
2013-05-11 15:41:00,88.2,41.4,30.17,NE,42,24.2,24.2,20,0.00,,---,0.00,VWS V14.01,2013-05-11 22:41:00,
2013-05-11 15:46:00,88.9,42.0,30.17,NE,42,24.2,24.2,20,0.00,,---,0.00,VWS V14.01,2013-05-11 22:46:00,
2013-05-11 15:51:00,88.2,41.4,30.17,ENE,57,15.0,15.4,20,0.00,,---,0.00,VWS V14.01,2013-05-11 22:51:00,
2013-05-11 15:56:00,88.7,41.9,30.14,ENE,57,15.0,15.0,20,0.00,,---,0.00,VWS V14.01,2013-05-11 22:56:00,
2013-05-11 16:02:00,88.2,41.4,30.14,ENE,57,15.0,15.0,20,0.00,,---,0.00,VWS V14.01,2013-05-11 23:02:00,
2013-05-11 16:08:00,88.7,41.9,30.14,East,89,11.4,11.4,20,0.00,,---,0.00,VWS V14.01,2013-05-11 23:08:00,
2013-05-11 16:13:00,88.9,42.0,30.14,NE,50,13.2,15.0,20,0.00,,---,0.00,VWS V14.01,2013-05-11 23:13:00,
2013-05-11 16:18:00,89.1,42.2,30.14,NE,38,8.7,8.7,20,0.00,,---,0.00,VWS V14.01,2013-05-11 23:18:00,
2013-05-11 16:24:00,88.0,41.3,30.14,NE,38,8.7,8.7,20,0.00,,---,0.00,VWS V14.01,2013-05-11 23:24:00,
2013-05-11 16:30:00,87.6,41.0,30.14,NE,38,8.7,8.7,20,0.00,,---,0.00,VWS V14.01,2013-05-11 23:30:00,
2013-05-11 16:35:00,87.4,40.8,30.14,NE,38,8.7,8.7,20,0.00,,---,0.00,VWS V14.01,2013-05-11 23:35:00,
2013-05-11 16:40:00,88.5,41.7,30.14,NE,38,8.7,8.7,20,0.00,,---,0.00,VWS V14.01,2013-05-11 23:40:00,
2013-05-11 16:45:00,88.5,41.7,30.14,NE,38,8.7,8.7,20,0.00,,---,0.00,VWS V14.01,2013-05-11 23:45:00,
2013-05-11 16:51:00,88.5,41.7,30.14,NE,38,8.7,8.7,20,0.00,,---,0.00,VWS V14.01,2013-05-11 23:51:00,
2013-05-11 16:56:00,88.9,42.0,30.17,NNE,15,7.6,7.6,20,0.00,,---,0.00,VWS V14.01,2013-05-11 23:56:00,
2013-05-11 17:01:00,89.1,42.2,30.17,NNE,15,7.6,7.6,20,0.00,,---,0.00,VWS V14.01,2013-05-12 00:01:00,
2013-05-11 17:06:00,89.8,40.7,30.17,NNE,15,7.6,7.6,18,0.00,,---,0.00,VWS V14.01,2013-05-12 00:06:00,
2013-05-11 17:12:00,88.7,41.9,30.17,NNE,15,7.6,7.6,20,0.00,,---,0.00,VWS V14.01,2013-05-12 00:12:00,
2013-05-11 17:18:00,87.6,41.0,30.17,NNE,15,7.6,7.6,20,0.00,,---,0.00,VWS V14.01,2013-05-12 00:18:00,
2013-05-11 17:24:00,87.6,41.0,30.17,NNE,15,7.6,7.6,20,0.00,,---,0.00,VWS V14.01,2013-05-12 00:24:00,
2013-05-11 17:29:00,88.3,41.6,30.17,WSW,257,7.6,10.1,20,0.00,,---,0.00,VWS V14.01,2013-05-12 00:29:00,
2013-05-11 17:35:00,88.2,41.4,30.17,WSW,240,13.2,13.2,20,0.00,,---,0.00,VWS V14.01,2013-05-12 00:35:00,
2013-05-11 17:40:00,87.8,41.1,30.17,WSW,240,13.2,13.2,20,0.00,,---,0.00,VWS V14.01,2013-05-12 00:40:00,
2013-05-11 17:45:00,87.4,40.8,30.17,WSW,240,13.2,13.2,20,0.00,,---,0.00,VWS V14.01,2013-05-12 00:45:00,
2013-05-11 17:50:00,87.1,40.5,30.17,WSW,240,13.2,13.2,20,0.00,,---,0.00,VWS V14.01,2013-05-12 00:50:00,
2013-05-11 17:55:00,86.4,40.0,30.17,WSW,240,13.2,13.2,20,0.00,,---,0.00,VWS V14.01,2013-05-12 00:55:00,
2013-05-11 18:01:00,86.0,39.7,30.17,WSW,240,13.2,13.2,20,0.00,,---,0.00,VWS V14.01,2013-05-12 01:01:00,
2013-05-11 18:06:00,85.8,39.5,30.17,WSW,240,13.2,13.2,20,0.00,,---,0.00,VWS V14.01,2013-05-12 01:06:00,
2013-05-11 18:11:00,85.8,39.5,30.17,WSW,240,13.2,13.2,20,0.00,,---,0.00,VWS V14.01,2013-05-12 01:11:00,
2013-05-11 18:16:00,84.7,38.6,30.17,WSW,240,13.2,13.2,20,0.00,,---,0.00,VWS V14.01,2013-05-12 01:16:00,
2013-05-11 18:21:00,84.4,38.3,30.17,WSW,252,9.2,9.2,20,0.00,,---,0.00,VWS V14.01,2013-05-12 01:21:00,
2013-05-11 18:27:00,84.0,39.9,30.17,WSW,252,9.2,9.2,21,0.00,,---,0.00,VWS V14.01,2013-05-12 01:27:00,
2013-05-11 18:32:00,82.8,38.9,30.17,West,262,12.3,12.3,21,0.00,,---,0.00,VWS V14.01,2013-05-12 01:32:00,
2013-05-11 18:37:00,82.6,38.7,30.17,West,266,8.1,8.1,21,0.00,,---,0.00,VWS V14.01,2013-05-12 01:37:00,
2013-05-11 18:44:00,82.0,38.3,30.17,WSW,243,10.5,10.5,21,0.00,,---,0.00,VWS V14.01,2013-05-12 01:44:00,
2013-05-11 18:49:00,82.2,38.4,30.17,SW,232,11.9,11.9,21,0.00,,---,0.00,VWS V14.01,2013-05-12 01:49:00,
2013-05-11 18:54:00,81.1,37.5,30.17,West,267,12.3,12.3,21,0.00,,---,0.00,VWS V14.01,2013-05-12 01:54:00,
2013-05-11 19:00:00,80.1,38.4,30.17,West,267,12.3,12.3,22,0.00,,---,0.00,VWS V14.01,2013-05-12 02:00:00,
2013-05-11 19:05:00,79.7,32.5,30.17,West,267,12.3,12.3,18,0.00,,---,0.00,VWS V14.01,2013-05-12 02:05:00,
2013-05-11 19:10:00,79.5,32.3,30.17,West,267,12.3,12.3,18,0.00,,---,0.00,VWS V14.01,2013-05-12 02:10:00,
2013-05-11 19:15:00,79.2,32.0,30.17,West,267,12.3,12.3,18,0.00,,---,0.00,VWS V14.01,2013-05-12 02:15:00,
2013-05-11 19:20:00,78.8,31.8,30.17,West,267,12.3,12.3,18,0.00,,---,0.00,VWS V14.01,2013-05-12 02:20:00,
2013-05-11 19:25:00,78.4,33.5,30.17,West,267,12.3,12.3,20,0.00,,---,0.00,VWS V14.01,2013-05-12 02:25:00,
2013-05-11 19:31:00,77.7,32.9,30.17,West,267,12.3,12.3,20,0.00,,---,0.00,VWS V14.01,2013-05-12 02:31:00,
2013-05-11 19:37:00,77.0,32.3,30.17,West,267,12.3,12.3,20,0.00,,---,0.00,VWS V14.01,2013-05-12 02:37:00,
2013-05-11 19:42:00,76.5,31.8,30.17,West,267,12.3,12.3,20,0.00,,---,0.00,VWS V14.01,2013-05-12 02:42:00,
2013-05-11 19:47:00,76.1,31.5,30.17,West,267,12.3,12.3,20,0.00,,---,0.00,VWS V14.01,2013-05-12 02:47:00,
2013-05-11 19:53:00,75.6,31.1,30.17,West,267,12.3,12.3,20,0.00,,---,0.00,VWS V14.01,2013-05-12 02:53:00,
2013-05-11 19:58:00,74.7,30.3,30.17,West,267,12.3,12.3,20,0.00,,---,0.00,VWS V14.01,2013-05-12 02:58:00,
2013-05-11 20:03:00,73.2,31.0,30.17,West,267,12.3,12.3,21,0.00,,---,0.00,VWS V14.01,2013-05-12 03:03:00,
2013-05-11 20:09:00,72.3,30.2,30.20,West,267,12.3,12.3,21,0.00,,---,0.00,VWS V14.01,2013-05-12 03:09:00,
2013-05-11 20:14:00,71.8,29.8,30.20,West,267,12.3,12.3,21,0.00,,---,0.00,VWS V14.01,2013-05-12 03:14:00,
2013-05-11 20:19:00,71.1,29.2,30.20,West,267,12.3,12.3,21,0.00,,---,0.00,VWS V14.01,2013-05-12 03:19:00,
2013-05-11 20:24:00,70.3,28.6,30.20,West,267,12.3,12.3,21,0.00,,---,0.00,VWS V14.01,2013-05-12 03:24:00,
2013-05-11 20:30:00,69.1,29.2,30.20,West,267,12.3,12.3,22,0.00,,---,0.00,VWS V14.01,2013-05-12 03:30:00,
2013-05-11 20:35:00,68.4,28.6,30.20,West,267,12.3,12.3,22,0.00,,---,0.00,VWS V14.01,2013-05-12 03:35:00,
2013-05-11 20:40:00,67.6,28.0,30.20,West,267,12.3,12.3,22,0.00,,---,0.00,VWS V14.01,2013-05-12 03:40:00,
2013-05-11 20:45:00,67.1,27.6,30.20,West,267,12.3,12.3,22,0.00,,---,0.00,VWS V14.01,2013-05-12 03:45:00,
2013-05-11 20:51:00,66.7,27.3,30.20,West,267,12.3,12.3,22,0.00,,---,0.00,VWS V14.01,2013-05-12 03:51:00,
2013-05-11 20:56:00,66.4,27.0,30.20,West,267,12.3,12.3,22,0.00,,---,0.00,VWS V14.01,2013-05-12 03:56:00,
2013-05-11 21:01:00,65.8,26.5,30.20,West,267,12.3,12.3,22,0.00,,---,0.00,VWS V14.01,2013-05-12 04:01:00,
2013-05-11 21:02:00,65.8,26.5,30.20,West,267,12.3,12.3,22,0.00,,---,0.00,VWS V14.01,2013-05-12 04:02:00,
2013-05-11 21:03:00,65.7,26.4,30.20,West,267,12.3,12.3,22,0.00,,---,0.00,VWS V14.01,2013-05-12 04:03:00,
2013-05-11 21:09:00,64.8,25.6,30.20,West,267,12.3,12.3,22,0.00,,---,0.00,VWS V14.01,2013-05-12 04:09:00,
2013-05-11 21:12:00,64.6,25.5,30.20,West,267,12.3,12.3,22,0.00,,---,0.00,VWS V14.01,2013-05-12 04:12:00,
2013-05-11 21:17:00,64.0,26.5,30.20,West,267,12.3,12.3,24,0.00,,---,0.00,VWS V14.01,2013-05-12 04:17:00,
2013-05-11 21:18:00,63.9,26.4,30.20,West,267,12.3,12.3,24,0.00,,---,0.00,VWS V14.01,2013-05-12 04:18:00,
2013-05-11 21:24:00,63.1,25.8,30.23,West,267,12.3,12.3,24,0.00,,---,0.00,VWS V14.01,2013-05-12 04:24:00,
2013-05-11 21:30:00,62.2,25.0,30.23,West,267,12.3,12.3,24,0.00,,---,0.00,VWS V14.01,2013-05-12 04:30:00,
2013-05-11 21:35:00,61.5,24.4,30.23,West,267,12.3,12.3,24,0.00,,---,0.00,VWS V14.01,2013-05-12 04:35:00,
2013-05-11 21:40:00,61.0,24.0,30.23,West,267,12.3,12.3,24,0.00,,---,0.00,VWS V14.01,2013-05-12 04:40:00,
2013-05-11 21:45:00,61.2,24.1,30.23,West,267,12.3,12.3,24,0.00,,---,0.00,VWS V14.01,2013-05-12 04:45:00,
2013-05-11 21:51:00,60.8,23.8,30.23,West,267,12.3,12.3,24,0.00,,---,0.00,VWS V14.01,2013-05-12 04:51:00,
2013-05-11 21:56:00,60.4,25.0,30.23,West,267,12.3,12.3,26,0.00,,---,0.00,VWS V14.01,2013-05-12 04:56:00,
2013-05-11 22:01:00,59.9,24.5,30.23,West,267,12.3,12.3,26,0.00,,---,0.00,VWS V14.01,2013-05-12 05:01:00,
2013-05-11 22:06:00,59.5,26.9,30.23,West,267,12.3,12.3,28,0.00,,---,0.00,VWS V14.01,2013-05-12 05:06:00,
2013-05-11 22:11:00,59.4,26.7,30.23,West,267,12.3,12.3,28,0.00,,---,0.00,VWS V14.01,2013-05-12 05:11:00,
2013-05-11 22:16:00,59.2,26.5,30.23,West,267,12.3,12.3,28,0.00,,---,0.00,VWS V14.01,2013-05-12 05:16:00,
2013-05-11 22:22:00,58.5,25.9,30.23,West,267,12.3,12.3,28,0.00,,---,0.00,VWS V14.01,2013-05-12 05:22:00,
2013-05-11 22:27:00,58.1,25.6,30.23,West,267,12.3,12.3,28,0.00,,---,0.00,VWS V14.01,2013-05-12 05:27:00,
2013-05-11 22:32:00,57.9,25.5,30.23,West,267,12.3,12.3,28,0.00,,---,0.00,VWS V14.01,2013-05-12 05:32:00,
2013-05-11 22:37:00,57.6,25.1,30.23,West,267,12.3,12.3,28,0.00,,---,0.00,VWS V14.01,2013-05-12 05:37:00,
2013-05-11 22:42:00,56.8,25.8,30.23,West,267,12.3,12.3,30,0.00,,---,0.00,VWS V14.01,2013-05-12 05:42:00,
2013-05-11 22:48:00,56.7,25.6,30.23,West,267,12.3,12.3,30,0.00,,---,0.00,VWS V14.01,2013-05-12 05:48:00,
2013-05-11 22:53:00,56.7,25.6,30.23,West,267,12.3,12.3,30,0.00,,---,0.00,VWS V14.01,2013-05-12 05:53:00,
2013-05-11 22:58:00,56.3,27.6,30.23,West,267,12.3,12.3,33,0.00,,---,0.00,VWS V14.01,2013-05-12 05:58:00,
2013-05-11 23:03:00,56.3,27.6,30.23,West,267,12.3,12.3,33,0.00,,---,0.00,VWS V14.01,2013-05-12 06:03:00,
2013-05-11 23:08:00,56.3,27.6,30.23,West,267,12.3,12.3,33,0.00,,---,0.00,VWS V14.01,2013-05-12 06:08:00,
2013-05-11 23:13:00,56.3,27.6,30.23,West,267,12.3,12.3,33,0.00,,---,0.00,VWS V14.01,2013-05-12 06:13:00,
2013-05-11 23:19:00,55.9,27.3,30.23,West,267,12.3,12.3,33,0.00,,---,0.00,VWS V14.01,2013-05-12 06:19:00,
2013-05-11 23:24:00,55.6,27.0,30.23,West,267,12.3,12.3,33,0.00,,---,0.00,VWS V14.01,2013-05-12 06:24:00,
2013-05-11 23:29:00,55.6,27.0,30.23,West,267,12.3,12.3,33,0.00,,---,0.00,VWS V14.01,2013-05-12 06:29:00,
2013-05-11 23:34:00,55.4,26.8,30.23,West,267,12.3,12.3,33,0.00,,---,0.00,VWS V14.01,2013-05-12 06:34:00,
2013-05-11 23:40:00,54.9,27.4,30.23,West,267,12.3,12.3,34,0.00,,---,0.00,VWS V14.01,2013-05-12 06:40:00,
2013-05-11 23:45:00,54.3,26.9,30.23,West,267,12.3,12.3,34,0.00,,---,0.00,VWS V14.01,2013-05-12 06:45:00,
2013-05-11 23:50:00,54.3,26.9,30.23,West,267,12.3,12.3,34,0.00,,---,0.00,VWS V14.01,2013-05-12 06:50:00,
2013-05-11 23:56:00,54.0,26.6,30.23,West,267,12.3,12.3,34,0.00,,---,0.00,VWS V14.01,2013-05-12 06:56:00,